PWSweather.com
Personal Weather Stations
Station Observations
SOUTHARDNJ
Southard, Howell, NJ 07731

SouthardHowell, NJ 07731

Lat: 40.13020859666565, Lon: -74.21449720859528

Elevation: 112

Station Type: Davis VP2 Plus

midatlwx.com

High Low Average
Temperature 49.7°F9.8°C 24.8°F-4.0°C 37.2°F2.9°C
Dew Point 38.3°F3.5°C 23.0°F-5.0°C 30.7°F-0.7°C
Winds 5.8 mph 9.3 kmh Calm Calm 1.0 mph SE1.6 kmh SE
Wind Gusts 11.5 mph18.5 kmh -- 3.0 mph4.8 kmh
Humidity 94% 47% 79%
Pressure 30.39 in1029.1 mb 30.22 in1023.4 mb -
Precipitation 0.00 in0.0 mm - -
Hour Temp Dew Point Humidity Winds Wind Gusts Pressure Precip Precip Rate Daily Precip Total
12:03 AM 30.6°F-0.8°C 26.6°F-3.0°C 85% Calm Calm -- 30.36 in1028.1 mb - 0.00 in0.0 mm 0.00 in0.0 mm
12:09 AM 30.6°F-0.8°C 26.6°F-3.0°C 85% Calm Calm -- 30.36 in1028.1 mb - 0.00 in0.0 mm 0.00 in0.0 mm
12:15 AM 30.4°F-0.9°C 26.4°F-3.1°C 85% Calm Calm -- 30.36 in1028.1 mb - 0.00 in0.0 mm 0.00 in0.0 mm
12:20 AM 30.2°F-1.0°C 26.3°F-3.2°C 85% Calm Calm -- 30.35 in1027.8 mb - 0.00 in0.0 mm 0.00 in0.0 mm
12:26 AM 30.3°F-0.9°C 26.6°F-3.0°C 86% Calm Calm -- 30.36 in1028.1 mb - 0.00 in0.0 mm 0.00 in0.0 mm
12:31 AM 30.3°F-0.9°C 26.3°F-3.2°C 85% Calm Calm -- 30.36 in1028.1 mb - 0.00 in0.0 mm 0.00 in0.0 mm
12:37 AM 30.4°F-0.9°C 26.7°F-2.9°C 86% Calm Calm -- 30.35 in1027.8 mb - 0.00 in0.0 mm 0.00 in0.0 mm
12:43 AM 30.4°F-0.9°C 26.8°F-2.9°C 86% Calm Calm -- 30.35 in1027.8 mb - 0.00 in0.0 mm 0.00 in0.0 mm
12:48 AM 30.6°F-0.8°C 26.9°F-2.8°C 86% Calm Calm -- 30.35 in1027.8 mb - 0.00 in0.0 mm 0.00 in0.0 mm
12:54 AM 30.6°F-0.8°C 26.9°F-2.8°C 86% Calm Calm -- 30.35 in1027.8 mb - 0.00 in0.0 mm 0.00 in0.0 mm
01:00 AM 30.9°F-0.6°C 27.2°F-2.7°C 86% Calm Calm -- 30.35 in1027.8 mb - 0.00 in0.0 mm 0.00 in0.0 mm
01:05 AM 31.0°F-0.6°C 27.3°F-2.6°C 86% Calm Calm -- 30.36 in1028.1 mb - 0.00 in0.0 mm 0.00 in0.0 mm
01:11 AM 31.9°F-0.1°C 28.4°F-2.0°C 87% Calm Calm -- 30.35 in1027.8 mb - 0.00 in0.0 mm 0.00 in0.0 mm
01:16 AM 31.9°F-0.1°C 28.2°F-2.1°C 86% Calm Calm -- 30.35 in1027.8 mb - 0.00 in0.0 mm 0.00 in0.0 mm
01:22 AM 31.4°F-0.3°C 27.7°F-2.4°C 86% Calm Calm -- 30.35 in1027.8 mb - 0.00 in0.0 mm 0.00 in0.0 mm
01:28 AM 31.1°F-0.5°C 27.4°F-2.6°C 86% Calm Calm -- 30.35 in1027.8 mb - 0.00 in0.0 mm 0.00 in0.0 mm
01:33 AM 30.7°F-0.7°C 27.0°F-2.8°C 86% Calm Calm -- 30.35 in1027.8 mb - 0.00 in0.0 mm 0.00 in0.0 mm
01:39 AM 30.3°F-0.9°C 26.7°F-2.9°C 86% Calm Calm -- 30.35 in1027.8 mb - 0.00 in0.0 mm 0.00 in0.0 mm
01:45 AM 30.3°F-0.9°C 26.9°F-2.8°C 87% Calm Calm -- 30.35 in1027.8 mb - 0.00 in0.0 mm 0.00 in0.0 mm
01:50 AM 30.0°F-1.1°C 26.6°F-3.0°C 87% Calm Calm -- 30.35 in1027.8 mb - 0.00 in0.0 mm 0.00 in0.0 mm
01:56 AM 29.9°F-1.2°C 26.5°F-3.1°C 87% Calm Calm -- 30.35 in1027.8 mb - 0.00 in0.0 mm 0.00 in0.0 mm
02:01 AM 29.7°F-1.3°C 26.3°F-3.2°C 87% Calm Calm -- 30.35 in1027.8 mb - 0.00 in0.0 mm 0.00 in0.0 mm
02:07 AM 29.3°F-1.5°C 26.2°F-3.2°C 88% Calm Calm -- 30.36 in1028.1 mb - 0.00 in0.0 mm 0.00 in0.0 mm
02:13 AM 29.2°F-1.6°C 26.1°F-3.3°C 88% Calm Calm -- 30.36 in1028.1 mb - 0.00 in0.0 mm 0.00 in0.0 mm
02:18 AM 28.7°F-1.8°C 25.6°F-3.6°C 88% Calm Calm -- 30.36 in1028.1 mb - 0.00 in0.0 mm 0.00 in0.0 mm
02:24 AM 28.7°F-1.8°C 25.6°F-3.6°C 88% Calm Calm -- 30.36 in1028.1 mb - 0.00 in0.0 mm 0.00 in0.0 mm
02:30 AM 28.7°F-1.8°C 25.6°F-3.6°C 88% Calm Calm -- 30.36 in1028.1 mb - 0.00 in0.0 mm 0.00 in0.0 mm
02:35 AM 28.5°F-1.9°C 25.6°F-3.6°C 89% Calm Calm -- 30.35 in1027.8 mb - 0.00 in0.0 mm 0.00 in0.0 mm
02:41 AM 28.1°F-2.2°C 25.3°F-3.7°C 89% Calm Calm -- 30.35 in1027.8 mb - 0.00 in0.0 mm 0.00 in0.0 mm
02:46 AM 28.1°F-2.2°C 25.3°F-3.7°C 89% Calm Calm -- 30.35 in1027.8 mb - 0.00 in0.0 mm 0.00 in0.0 mm
02:52 AM 27.8°F-2.3°C 25.0°F-3.9°C 89% Calm Calm -- 30.35 in1027.8 mb - 0.00 in0.0 mm 0.00 in0.0 mm
02:58 AM 27.7°F-2.4°C 24.8°F-4.0°C 89% Calm Calm -- 30.35 in1027.8 mb - 0.00 in0.0 mm 0.00 in0.0 mm
03:03 AM 27.8°F-2.3°C 25.2°F-3.8°C 90% Calm Calm -- 30.35 in1027.8 mb - 0.00 in0.0 mm 0.00 in0.0 mm
03:09 AM 27.7°F-2.4°C 25.1°F-3.8°C 90% Calm Calm -- 30.35 in1027.8 mb - 0.00 in0.0 mm 0.00 in0.0 mm
03:15 AM 27.6°F-2.4°C 25.1°F-3.8°C 90% Calm Calm -- 30.34 in1027.4 mb - 0.00 in0.0 mm 0.00 in0.0 mm
03:20 AM 27.5°F-2.5°C 24.9°F-3.9°C 90% Calm Calm -- 30.34 in1027.4 mb - 0.00 in0.0 mm 0.00 in0.0 mm
03:26 AM 27.2°F-2.7°C 24.9°F-3.9°C 91% Calm Calm -- 30.34 in1027.4 mb - 0.00 in0.0 mm 0.00 in0.0 mm
03:31 AM 27.2°F-2.7°C 24.9°F-3.9°C 91% Calm Calm -- 30.34 in1027.4 mb - 0.00 in0.0 mm 0.00 in0.0 mm
03:37 AM 27.0°F-2.8°C 24.7°F-4.1°C 91% Calm Calm -- 30.34 in1027.4 mb - 0.00 in0.0 mm 0.00 in0.0 mm
03:43 AM 26.7°F-2.9°C 24.5°F-4.2°C 91% Calm Calm -- 30.34 in1027.4 mb - 0.00 in0.0 mm 0.00 in0.0 mm
03:48 AM 26.7°F-2.9°C 24.4°F-4.2°C 91% Calm Calm -- 30.34 in1027.4 mb - 0.00 in0.0 mm 0.00 in0.0 mm
03:54 AM 26.5°F-3.1°C 24.2°F-4.3°C 91% Calm Calm -- 30.34 in1027.4 mb - 0.00 in0.0 mm 0.00 in0.0 mm
04:00 AM 26.3°F-3.2°C 24.0°F-4.4°C 91% Calm Calm -- 30.34 in1027.4 mb - 0.00 in0.0 mm 0.00 in0.0 mm
04:05 AM 26.3°F-3.2°C 24.0°F-4.4°C 91% Calm Calm -- 30.33 in1027.1 mb - 0.00 in0.0 mm 0.00 in0.0 mm
04:11 AM 26.2°F-3.2°C 24.0°F-4.4°C 91% Calm Calm 1.1 mph1.8 kmh 30.33 in1027.1 mb - 0.00 in0.0 mm 0.00 in0.0 mm
04:16 AM 26.3°F-3.2°C 24.0°F-4.4°C 91% Calm Calm -- 30.33 in1027.1 mb - 0.00 in0.0 mm 0.00 in0.0 mm
04:22 AM 26.1°F-3.3°C 24.1°F-4.4°C 92% Calm Calm -- 30.33 in1027.1 mb - 0.00 in0.0 mm 0.00 in0.0 mm
04:28 AM 26.1°F-3.3°C 23.8°F-4.6°C 91% Calm Calm -- 30.33 in1027.1 mb - 0.00 in0.0 mm 0.00 in0.0 mm
04:33 AM 25.8°F-3.4°C 23.6°F-4.7°C 91% Calm Calm -- 30.33 in1027.1 mb - 0.00 in0.0 mm 0.00 in0.0 mm
04:39 AM 25.6°F-3.6°C 23.4°F-4.8°C 91% Calm Calm -- 30.33 in1027.1 mb - 0.00 in0.0 mm 0.00 in0.0 mm
04:45 AM 25.6°F-3.6°C 23.6°F-4.7°C 92% Calm Calm -- 30.34 in1027.4 mb - 0.00 in0.0 mm 0.00 in0.0 mm
04:50 AM 25.6°F-3.6°C 23.6°F-4.7°C 92% Calm Calm -- 30.34 in1027.4 mb - 0.00 in0.0 mm 0.00 in0.0 mm
04:56 AM 25.8°F-3.4°C 23.8°F-4.6°C 92% Calm Calm -- 30.34 in1027.4 mb - 0.00 in0.0 mm 0.00 in0.0 mm
05:01 AM 25.9°F-3.4°C 23.9°F-4.5°C 92% Calm Calm -- 30.34 in1027.4 mb - 0.00 in0.0 mm 0.00 in0.0 mm
05:07 AM 25.9°F-3.4°C 23.9°F-4.5°C 92% Calm Calm -- 30.34 in1027.4 mb - 0.00 in0.0 mm 0.00 in0.0 mm
05:13 AM 25.8°F-3.4°C 23.8°F-4.6°C 92% Calm Calm -- 30.34 in1027.4 mb - 0.00 in0.0 mm 0.00 in0.0 mm
05:18 AM 25.9°F-3.4°C 23.9°F-4.5°C 92% Calm Calm -- 30.35 in1027.8 mb - 0.00 in0.0 mm 0.00 in0.0 mm
05:24 AM 26.1°F-3.3°C 24.1°F-4.4°C 92% Calm Calm -- 30.34 in1027.4 mb - 0.00 in0.0 mm 0.00 in0.0 mm
05:30 AM 26.1°F-3.3°C 24.1°F-4.4°C 92% Calm Calm -- 30.35 in1027.8 mb - 0.00 in0.0 mm 0.00 in0.0 mm
05:35 AM 26.1°F-3.3°C 24.1°F-4.4°C 92% Calm Calm -- 30.35 in1027.8 mb - 0.00 in0.0 mm 0.00 in0.0 mm
05:41 AM 25.9°F-3.4°C 23.9°F-4.5°C 92% Calm Calm -- 30.35 in1027.8 mb - 0.00 in0.0 mm 0.00 in0.0 mm
05:46 AM 25.9°F-3.4°C 23.9°F-4.5°C 92% Calm Calm -- 30.35 in1027.8 mb - 0.00 in0.0 mm 0.00 in0.0 mm
05:52 AM 25.8°F-3.4°C 23.8°F-4.6°C 92% Calm Calm -- 30.35 in1027.8 mb - 0.00 in0.0 mm 0.00 in0.0 mm
05:58 AM 25.7°F-3.5°C 23.7°F-4.6°C 92% Calm Calm -- 30.35 in1027.8 mb - 0.00 in0.0 mm 0.00 in0.0 mm
06:03 AM 25.4°F-3.7°C 23.4°F-4.8°C 92% Calm Calm -- 30.35 in1027.8 mb - 0.00 in0.0 mm 0.00 in0.0 mm
06:09 AM 25.4°F-3.7°C 23.4°F-4.8°C 92% Calm Calm -- 30.35 in1027.8 mb - 0.00 in0.0 mm 0.00 in0.0 mm
06:15 AM 25.2°F-3.8°C 23.2°F-4.9°C 92% Calm Calm -- 30.36 in1028.1 mb - 0.00 in0.0 mm 0.00 in0.0 mm
06:20 AM 25.1°F-3.8°C 23.1°F-4.9°C 92% Calm Calm -- 30.36 in1028.1 mb - 0.00 in0.0 mm 0.00 in0.0 mm
06:26 AM 25.1°F-3.8°C 23.1°F-4.9°C 92% Calm Calm -- 30.36 in1028.1 mb - 0.00 in0.0 mm 0.00 in0.0 mm
06:31 AM 25.2°F-3.8°C 23.2°F-4.9°C 92% Calm Calm -- 30.35 in1027.8 mb - 0.00 in0.0 mm 0.00 in0.0 mm
06:37 AM 25.3°F-3.7°C 23.3°F-4.8°C 92% Calm Calm -- 30.36 in1028.1 mb - 0.00 in0.0 mm 0.00 in0.0 mm
06:43 AM 25.2°F-3.8°C 23.2°F-4.9°C 92% Calm Calm -- 30.36 in1028.1 mb - 0.00 in0.0 mm 0.00 in0.0 mm
06:48 AM 25.2°F-3.8°C 23.2°F-4.9°C 92% Calm Calm -- 30.36 in1028.1 mb - 0.00 in0.0 mm 0.00 in0.0 mm
06:54 AM 25.2°F-3.8°C 23.2°F-4.9°C 92% Calm Calm -- 30.36 in1028.1 mb - 0.00 in0.0 mm 0.00 in0.0 mm
07:00 AM 25.0°F-3.9°C 23.0°F-5.0°C 92% Calm Calm -- 30.36 in1028.1 mb - 0.00 in0.0 mm 0.00 in0.0 mm
07:05 AM 25.0°F-3.9°C 23.2°F-4.9°C 93% Calm Calm -- 30.36 in1028.1 mb - 0.00 in0.0 mm 0.00 in0.0 mm
07:11 AM 25.0°F-3.9°C 23.0°F-5.0°C 92% Calm Calm -- 30.36 in1028.1 mb - 0.00 in0.0 mm 0.00 in0.0 mm
07:16 AM 24.8°F-4.0°C 23.1°F-4.9°C 93% Calm Calm -- 30.36 in1028.1 mb - 0.00 in0.0 mm 0.00 in0.0 mm
07:22 AM 24.9°F-3.9°C 23.2°F-4.9°C 93% Calm Calm -- 30.36 in1028.1 mb - 0.00 in0.0 mm 0.00 in0.0 mm
07:28 AM 25.0°F-3.9°C 23.3°F-4.8°C 93% Calm Calm -- 30.36 in1028.1 mb - 0.00 in0.0 mm 0.00 in0.0 mm
07:33 AM 24.9°F-3.9°C 23.1°F-4.9°C 93% Calm Calm -- 30.36 in1028.1 mb - 0.00 in0.0 mm 0.00 in0.0 mm
07:39 AM 25.0°F-3.9°C 23.2°F-4.9°C 93% Calm Calm -- 30.36 in1028.1 mb - 0.00 in0.0 mm 0.00 in0.0 mm
07:45 AM 25.0°F-3.9°C 23.3°F-4.8°C 93% Calm Calm -- 30.36 in1028.1 mb - 0.00 in0.0 mm 0.00 in0.0 mm
07:50 AM 25.1°F-3.8°C 23.4°F-4.8°C 93% Calm Calm -- 30.36 in1028.1 mb - 0.00 in0.0 mm 0.00 in0.0 mm
07:56 AM 25.2°F-3.8°C 23.4°F-4.8°C 93% Calm Calm -- 30.36 in1028.1 mb - 0.00 in0.0 mm 0.00 in0.0 mm
08:01 AM 25.5°F-3.6°C 23.8°F-4.6°C 93% Calm Calm -- 30.36 in1028.1 mb - 0.00 in0.0 mm 0.00 in0.0 mm
08:07 AM 26.6°F-3.0°C 24.8°F-4.0°C 93% Calm Calm -- 30.36 in1028.1 mb - 0.00 in0.0 mm 0.00 in0.0 mm
08:13 AM 26.8°F-2.9°C 25.1°F-3.8°C 93% Calm Calm -- 30.36 in1028.1 mb - 0.00 in0.0 mm 0.00 in0.0 mm
08:18 AM 27.7°F-2.4°C 25.9°F-3.4°C 93% Calm Calm -- 30.36 in1028.1 mb - 0.00 in0.0 mm 0.00 in0.0 mm
08:24 AM 28.3°F-2.1°C 26.3°F-3.2°C 92% Calm Calm -- 30.37 in1028.4 mb - 0.00 in0.0 mm 0.00 in0.0 mm
08:30 AM 29.1°F-1.6°C 27.0°F-2.8°C 92% Calm Calm -- 30.37 in1028.4 mb - 0.00 in0.0 mm 0.00 in0.0 mm
08:35 AM 30.3°F-0.9°C 28.0°F-2.2°C 91% Calm Calm 1.1 mph1.8 kmh 30.37 in1028.4 mb - 0.00 in0.0 mm 0.00 in0.0 mm
08:41 AM 32.9°F0.5°C 28.9°F-1.7°C 85% Calm Calm -- 30.37 in1028.4 mb - 0.00 in0.0 mm 0.00 in0.0 mm
08:46 AM 33.2°F0.7°C 28.9°F-1.7°C 84% Calm Calm -- 30.37 in1028.4 mb - 0.00 in0.0 mm 0.00 in0.0 mm
08:52 AM 35.1°F1.7°C 29.9°F-1.2°C 81% Calm Calm -- 30.38 in1028.8 mb - 0.00 in0.0 mm 0.00 in0.0 mm
08:58 AM 35.6°F2.0°C 30.1°F-1.1°C 80% Calm Calm 2.3 mph3.7 kmh 30.38 in1028.8 mb - 0.00 in0.0 mm 0.00 in0.0 mm
09:03 AM 37.6°F3.1°C 30.8°F-0.7°C 76% Calm Calm -- 30.38 in1028.8 mb - 0.00 in0.0 mm 0.00 in0.0 mm
09:09 AM 37.7°F3.2°C 30.2°F-1.0°C 74% Calm Calm -- 30.38 in1028.8 mb - 0.00 in0.0 mm 0.00 in0.0 mm
09:15 AM 39.5°F4.2°C 29.5°F-1.4°C 67% Calm Calm 3.4 mph5.5 kmh 30.38 in1028.8 mb - 0.00 in0.0 mm 0.00 in0.0 mm
09:20 AM 40.5°F4.7°C 29.6°F-1.3°C 65% Calm Calm 2.3 mph3.7 kmh 30.39 in1029.1 mb - 0.00 in0.0 mm 0.00 in0.0 mm
09:26 AM 41.0°F5.0°C 29.0°F-1.7°C 62% 2.3 mph SE3.7 kmh SE 3.4 mph5.5 kmh 30.39 in1029.1 mb - 0.00 in0.0 mm 0.00 in0.0 mm
09:31 AM 41.4°F5.2°C 30.5°F-0.8°C 65% Calm Calm 2.3 mph3.7 kmh 30.38 in1028.8 mb - 0.00 in0.0 mm 0.00 in0.0 mm
09:37 AM 42.8°F6.0°C 30.3°F-0.9°C 61% 1.1 mph ESE1.8 kmh ESE 2.3 mph3.7 kmh 30.38 in1028.8 mb - 0.00 in0.0 mm 0.00 in0.0 mm
09:43 AM 42.9°F6.1°C 30.4°F-0.9°C 61% 1.1 mph ESE1.8 kmh ESE 3.4 mph5.5 kmh 30.38 in1028.8 mb - 0.00 in0.0 mm 0.00 in0.0 mm
09:48 AM 43.4°F6.3°C 29.6°F-1.3°C 58% 2.3 mph SE3.7 kmh SE 3.4 mph5.5 kmh 30.38 in1028.8 mb - 0.00 in0.0 mm 0.00 in0.0 mm
09:54 AM 43.4°F6.3°C 30.0°F-1.1°C 59% 2.3 mph SE3.7 kmh SE 3.4 mph5.5 kmh 30.38 in1028.8 mb - 0.00 in0.0 mm 0.00 in0.0 mm
10:00 AM 44.1°F6.7°C 31.1°F-0.5°C 60% Calm Calm -- 30.39 in1029.1 mb - 0.00 in0.0 mm 0.00 in0.0 mm
10:05 AM 44.1°F6.7°C 31.5°F-0.3°C 61% 2.3 mph SSE3.7 kmh SSE 3.4 mph5.5 kmh 30.39 in1029.1 mb - 0.00 in0.0 mm 0.00 in0.0 mm
10:11 AM 45.0°F7.2°C 31.5°F-0.3°C 59% 2.3 mph E3.7 kmh E 5.8 mph9.3 kmh 30.39 in1029.1 mb - 0.00 in0.0 mm 0.00 in0.0 mm
10:16 AM 45.2°F7.3°C 31.3°F-0.4°C 58% 2.3 mph SE3.7 kmh SE 3.4 mph5.5 kmh 30.39 in1029.1 mb - 0.00 in0.0 mm 0.00 in0.0 mm
10:22 AM 45.8°F7.7°C 31.5°F-0.3°C 57% 2.3 mph ESE3.7 kmh ESE 3.4 mph5.5 kmh 30.39 in1029.1 mb - 0.00 in0.0 mm 0.00 in0.0 mm
10:28 AM 46.1°F7.8°C 31.3°F-0.4°C 56% 3.4 mph ESE5.5 kmh ESE 6.9 mph11.1 kmh 30.39 in1029.1 mb - 0.00 in0.0 mm 0.00 in0.0 mm
10:33 AM 46.3°F7.9°C 31.9°F-0.1°C 57% 3.4 mph S5.5 kmh S 3.4 mph5.5 kmh 30.38 in1028.8 mb - 0.00 in0.0 mm 0.00 in0.0 mm
10:39 AM 46.5°F8.1°C 32.1°F0.1°C 57% 2.3 mph SE3.7 kmh SE 3.4 mph5.5 kmh 30.38 in1028.8 mb - 0.00 in0.0 mm 0.00 in0.0 mm
10:45 AM 47.4°F8.6°C 32.9°F0.5°C 57% 1.1 mph ESE1.8 kmh ESE 3.4 mph5.5 kmh 30.38 in1028.8 mb - 0.00 in0.0 mm 0.00 in0.0 mm
10:50 AM 47.8°F8.8°C 32.8°F0.4°C 56% 2.3 mph SE3.7 kmh SE 3.4 mph5.5 kmh 30.38 in1028.8 mb - 0.00 in0.0 mm 0.00 in0.0 mm
10:56 AM 48.5°F9.2°C 33.9°F1.1°C 57% 2.3 mph ESE3.7 kmh ESE 5.8 mph9.3 kmh 30.38 in1028.8 mb - 0.00 in0.0 mm 0.00 in0.0 mm
11:01 AM 48.7°F9.3°C 34.2°F1.2°C 57% 3.4 mph SE5.5 kmh SE 8.0 mph12.9 kmh 30.38 in1028.8 mb - 0.00 in0.0 mm 0.00 in0.0 mm
11:07 AM 48.3°F9.1°C 34.2°F1.2°C 58% 2.3 mph ESE3.7 kmh ESE 4.6 mph7.4 kmh 30.37 in1028.4 mb - 0.00 in0.0 mm 0.00 in0.0 mm
11:13 AM 48.7°F9.3°C 34.1°F1.2°C 57% 3.4 mph SE5.5 kmh SE 5.8 mph9.3 kmh 30.37 in1028.4 mb - 0.00 in0.0 mm 0.00 in0.0 mm
11:18 AM 48.7°F9.3°C 35.0°F1.7°C 59% 3.4 mph S5.5 kmh S 4.6 mph7.4 kmh 30.37 in1028.4 mb - 0.00 in0.0 mm 0.00 in0.0 mm
11:24 AM 48.7°F9.3°C 35.0°F1.7°C 59% 4.6 mph SE7.4 kmh SE 9.2 mph14.8 kmh 30.37 in1028.4 mb - 0.00 in0.0 mm 0.00 in0.0 mm
11:30 AM 48.9°F9.4°C 34.8°F1.6°C 58% 2.3 mph E3.7 kmh E 4.6 mph7.4 kmh 30.36 in1028.1 mb - 0.00 in0.0 mm 0.00 in0.0 mm
11:35 AM 49.0°F9.4°C 34.9°F1.6°C 58% 2.3 mph SE3.7 kmh SE 5.8 mph9.3 kmh 30.36 in1028.1 mb - 0.00 in0.0 mm 0.00 in0.0 mm
11:41 AM 49.2°F9.6°C 35.1°F1.7°C 58% 3.4 mph SSE5.5 kmh SSE 5.8 mph9.3 kmh 30.36 in1028.1 mb - 0.00 in0.0 mm 0.00 in0.0 mm
11:46 AM 49.1°F9.5°C 35.4°F1.9°C 59% 4.6 mph SSE7.4 kmh SSE 10.3 mph16.6 kmh 30.36 in1028.1 mb - 0.00 in0.0 mm 0.00 in0.0 mm
11:52 AM 49.4°F9.7°C 35.7°F2.1°C 59% 2.3 mph S3.7 kmh S 8.0 mph12.9 kmh 30.36 in1028.1 mb - 0.00 in0.0 mm 0.00 in0.0 mm
11:58 AM 49.2°F9.6°C 35.5°F1.9°C 59% 4.6 mph SE7.4 kmh SE 8.0 mph12.9 kmh 30.36 in1028.1 mb - 0.00 in0.0 mm 0.00 in0.0 mm
12:03 PM 49.1°F9.5°C 35.8°F2.1°C 60% 3.4 mph SE5.5 kmh SE 6.9 mph11.1 kmh 30.35 in1027.8 mb - 0.00 in0.0 mm 0.00 in0.0 mm
12:09 PM 49.4°F9.7°C 35.6°F2.0°C 59% 3.4 mph SE5.5 kmh SE 5.8 mph9.3 kmh 30.35 in1027.8 mb - 0.00 in0.0 mm 0.00 in0.0 mm
12:15 PM 48.8°F9.3°C 35.1°F1.7°C 59% 4.6 mph S7.4 kmh S 5.8 mph9.3 kmh 30.35 in1027.8 mb - 0.00 in0.0 mm 0.00 in0.0 mm
12:20 PM 48.9°F9.4°C 35.2°F1.8°C 59% 3.4 mph SE5.5 kmh SE 5.8 mph9.3 kmh 30.35 in1027.8 mb - 0.00 in0.0 mm 0.00 in0.0 mm
12:26 PM 49.6°F9.8°C 34.9°F1.6°C 57% 3.4 mph ESE5.5 kmh ESE 5.8 mph9.3 kmh 30.34 in1027.4 mb - 0.00 in0.0 mm 0.00 in0.0 mm
12:31 PM 49.4°F9.7°C 34.3°F1.3°C 56% 3.4 mph ESE5.5 kmh ESE 6.9 mph11.1 kmh 30.34 in1027.4 mb - 0.00 in0.0 mm 0.00 in0.0 mm
12:37 PM 49.3°F9.6°C 34.2°F1.2°C 56% 2.3 mph E3.7 kmh E 5.8 mph9.3 kmh 30.34 in1027.4 mb - 0.00 in0.0 mm 0.00 in0.0 mm
12:43 PM 48.7°F9.3°C 33.7°F0.9°C 56% 3.4 mph SE5.5 kmh SE 9.2 mph14.8 kmh 30.34 in1027.4 mb - 0.00 in0.0 mm 0.00 in0.0 mm
12:48 PM 48.5°F9.2°C 33.1°F0.6°C 55% 2.3 mph SE3.7 kmh SE 3.4 mph5.5 kmh 30.34 in1027.4 mb - 0.00 in0.0 mm 0.00 in0.0 mm
12:54 PM 48.9°F9.4°C 32.5°F0.3°C 53% 4.6 mph ESE7.4 kmh ESE 9.2 mph14.8 kmh 30.33 in1027.1 mb - 0.00 in0.0 mm 0.00 in0.0 mm
01:00 PM 49.4°F9.7°C 31.0°F-0.6°C 49% 3.4 mph SSE5.5 kmh SSE 10.3 mph16.6 kmh 30.33 in1027.1 mb - 0.00 in0.0 mm 0.00 in0.0 mm
01:05 PM 49.5°F9.7°C 31.1°F-0.5°C 49% 4.6 mph ESE7.4 kmh ESE 6.9 mph11.1 kmh 30.33 in1027.1 mb - 0.00 in0.0 mm 0.00 in0.0 mm
01:11 PM 49.1°F9.5°C 30.3°F-0.9°C 48% 4.6 mph S7.4 kmh S 9.2 mph14.8 kmh 30.32 in1026.8 mb - 0.00 in0.0 mm 0.00 in0.0 mm
01:16 PM 49.3°F9.6°C 29.9°F-1.2°C 47% 4.6 mph ESE7.4 kmh ESE 8.0 mph12.9 kmh 30.32 in1026.8 mb - 0.00 in0.0 mm 0.00 in0.0 mm
01:22 PM 49.3°F9.6°C 29.9°F-1.2°C 47% 5.8 mph SE9.3 kmh SE 11.5 mph18.5 kmh 30.31 in1026.4 mb - 0.00 in0.0 mm 0.00 in0.0 mm
01:28 PM 49.3°F9.6°C 29.9°F-1.2°C 47% 5.8 mph SE9.3 kmh SE 11.5 mph18.5 kmh 30.31 in1026.4 mb - 0.00 in0.0 mm 0.00 in0.0 mm
01:33 PM 49.5°F9.7°C 31.6°F-0.2°C 50% 3.4 mph ESE5.5 kmh ESE 6.9 mph11.1 kmh 30.31 in1026.4 mb - 0.00 in0.0 mm 0.00 in0.0 mm
01:39 PM 49.7°F9.8°C 32.3°F0.2°C 51% 3.4 mph S5.5 kmh S 8.0 mph12.9 kmh 30.31 in1026.4 mb - 0.00 in0.0 mm 0.00 in0.0 mm
01:45 PM 49.4°F9.7°C 32.5°F0.3°C 52% 4.6 mph SE7.4 kmh SE 9.2 mph14.8 kmh 30.30 in1026.1 mb - 0.00 in0.0 mm 0.00 in0.0 mm
01:50 PM 49.2°F9.6°C 32.8°F0.4°C 53% 3.4 mph ESE5.5 kmh ESE 8.0 mph12.9 kmh 30.30 in1026.1 mb - 0.00 in0.0 mm 0.00 in0.0 mm
01:56 PM 48.9°F9.4°C 33.4°F0.8°C 55% 3.4 mph ESE5.5 kmh ESE 6.9 mph11.1 kmh 30.30 in1026.1 mb - 0.00 in0.0 mm 0.00 in0.0 mm
02:01 PM 48.8°F9.3°C 33.3°F0.7°C 55% 3.4 mph ESE5.5 kmh ESE 6.9 mph11.1 kmh 30.30 in1026.1 mb - 0.00 in0.0 mm 0.00 in0.0 mm
02:07 PM 48.3°F9.1°C 33.8°F1.0°C 57% 4.6 mph ESE7.4 kmh ESE 8.0 mph12.9 kmh 30.30 in1026.1 mb - 0.00 in0.0 mm 0.00 in0.0 mm
02:13 PM 48.5°F9.2°C 34.0°F1.1°C 57% 4.6 mph SE7.4 kmh SE 10.3 mph16.6 kmh 30.30 in1026.1 mb - 0.00 in0.0 mm 0.00 in0.0 mm
02:18 PM 48.4°F9.1°C 34.3°F1.3°C 58% 4.6 mph SE7.4 kmh SE 11.5 mph18.5 kmh 30.30 in1026.1 mb - 0.00 in0.0 mm 0.00 in0.0 mm
02:24 PM 47.9°F8.8°C 34.3°F1.3°C 59% 4.6 mph SE7.4 kmh SE 8.0 mph12.9 kmh 30.30 in1026.1 mb - 0.00 in0.0 mm 0.00 in0.0 mm
02:30 PM 47.6°F8.7°C 34.4°F1.3°C 60% 4.6 mph SE7.4 kmh SE 10.3 mph16.6 kmh 30.29 in1025.7 mb - 0.00 in0.0 mm 0.00 in0.0 mm
02:35 PM 47.6°F8.7°C 34.8°F1.6°C 61% 2.3 mph SE3.7 kmh SE 5.8 mph9.3 kmh 30.29 in1025.7 mb - 0.00 in0.0 mm 0.00 in0.0 mm
02:41 PM 47.0°F8.3°C 34.6°F1.4°C 62% 3.4 mph SE5.5 kmh SE 5.8 mph9.3 kmh 30.29 in1025.7 mb - 0.00 in0.0 mm 0.00 in0.0 mm
02:46 PM 46.9°F8.3°C 34.5°F1.4°C 62% 4.6 mph SE7.4 kmh SE 8.0 mph12.9 kmh 30.30 in1026.1 mb - 0.00 in0.0 mm 0.00 in0.0 mm
02:52 PM 46.6°F8.1°C 34.7°F1.5°C 63% 3.4 mph SE5.5 kmh SE 6.9 mph11.1 kmh 30.30 in1026.1 mb - 0.00 in0.0 mm 0.00 in0.0 mm
02:58 PM 46.6°F8.1°C 34.3°F1.3°C 62% 5.8 mph SSE9.3 kmh SSE 8.0 mph12.9 kmh 30.30 in1026.1 mb - 0.00 in0.0 mm 0.00 in0.0 mm
03:03 PM 46.6°F8.1°C 34.3°F1.3°C 62% 3.4 mph SE5.5 kmh SE 6.9 mph11.1 kmh 30.30 in1026.1 mb - 0.00 in0.0 mm 0.00 in0.0 mm
03:09 PM 46.3°F7.9°C 34.4°F1.3°C 63% 4.6 mph SSE7.4 kmh SSE 10.3 mph16.6 kmh 30.30 in1026.1 mb - 0.00 in0.0 mm 0.00 in0.0 mm
03:15 PM 46.2°F7.9°C 35.1°F1.7°C 65% 5.8 mph SE9.3 kmh SE 8.0 mph12.9 kmh 30.30 in1026.1 mb - 0.00 in0.0 mm 0.00 in0.0 mm
03:20 PM 46.2°F7.9°C 35.1°F1.7°C 65% 5.8 mph SE9.3 kmh SE 8.0 mph12.9 kmh 30.30 in1026.1 mb - 0.00 in0.0 mm 0.00 in0.0 mm
03:26 PM 46.7°F8.2°C 35.6°F2.0°C 65% 3.4 mph S5.5 kmh S 5.8 mph9.3 kmh 30.29 in1025.7 mb - 0.00 in0.0 mm 0.00 in0.0 mm
03:31 PM 47.0°F8.3°C 35.4°F1.9°C 64% 4.6 mph ESE7.4 kmh ESE 9.2 mph14.8 kmh 30.29 in1025.7 mb - 0.00 in0.0 mm 0.00 in0.0 mm
03:37 PM 46.8°F8.2°C 35.3°F1.8°C 64% 3.4 mph ESE5.5 kmh ESE 5.8 mph9.3 kmh 30.29 in1025.7 mb - 0.00 in0.0 mm 0.00 in0.0 mm
03:43 PM 46.7°F8.2°C 35.6°F2.0°C 65% 3.4 mph SE5.5 kmh SE 8.0 mph12.9 kmh 30.29 in1025.7 mb - 0.00 in0.0 mm 0.00 in0.0 mm
03:48 PM 46.3°F7.9°C 35.5°F1.9°C 66% 3.4 mph SE5.5 kmh SE 6.9 mph11.1 kmh 30.29 in1025.7 mb - 0.00 in0.0 mm 0.00 in0.0 mm
03:54 PM 46.3°F7.9°C 35.5°F1.9°C 66% 3.4 mph S5.5 kmh S 4.6 mph7.4 kmh 30.29 in1025.7 mb - 0.00 in0.0 mm 0.00 in0.0 mm
04:00 PM 46.0°F7.8°C 35.7°F2.1°C 67% 1.1 mph SE1.8 kmh SE 3.4 mph5.5 kmh 30.30 in1026.1 mb - 0.00 in0.0 mm 0.00 in0.0 mm
04:05 PM 46.0°F7.8°C 35.6°F2.0°C 67% 1.1 mph SSE1.8 kmh SSE 3.4 mph5.5 kmh 30.29 in1025.7 mb - 0.00 in0.0 mm 0.00 in0.0 mm
04:11 PM 45.8°F7.7°C 34.7°F1.5°C 65% 3.4 mph SSE5.5 kmh SSE 4.6 mph7.4 kmh 30.30 in1026.1 mb - 0.00 in0.0 mm 0.00 in0.0 mm
04:16 PM 45.7°F7.6°C 35.0°F1.7°C 66% 2.3 mph SSE3.7 kmh SSE 5.8 mph9.3 kmh 30.30 in1026.1 mb - 0.00 in0.0 mm 0.00 in0.0 mm
04:22 PM 45.8°F7.7°C 35.1°F1.7°C 66% 3.4 mph SE5.5 kmh SE 6.9 mph11.1 kmh 30.30 in1026.1 mb - 0.00 in0.0 mm 0.00 in0.0 mm
04:28 PM 45.8°F7.7°C 35.1°F1.7°C 66% 3.4 mph ESE5.5 kmh ESE 3.4 mph5.5 kmh 30.29 in1025.7 mb - 0.00 in0.0 mm 0.00 in0.0 mm
04:33 PM 45.6°F7.6°C 35.2°F1.8°C 67% 2.3 mph SE3.7 kmh SE 4.6 mph7.4 kmh 30.29 in1025.7 mb - 0.00 in0.0 mm 0.00 in0.0 mm
04:39 PM 45.5°F7.5°C 35.2°F1.8°C 67% 3.4 mph SE5.5 kmh SE 6.9 mph11.1 kmh 30.29 in1025.7 mb - 0.00 in0.0 mm 0.00 in0.0 mm
04:45 PM 45.2°F7.3°C 35.3°F1.8°C 68% 3.4 mph SE5.5 kmh SE 6.9 mph11.1 kmh 30.29 in1025.7 mb - 0.00 in0.0 mm 0.00 in0.0 mm
04:50 PM 45.2°F7.3°C 35.3°F1.8°C 68% 3.4 mph SE5.5 kmh SE 9.2 mph14.8 kmh 30.30 in1026.1 mb - 0.00 in0.0 mm 0.00 in0.0 mm
04:56 PM 45.0°F7.2°C 35.8°F2.1°C 70% 2.3 mph SE3.7 kmh SE 5.8 mph9.3 kmh 30.30 in1026.1 mb - 0.00 in0.0 mm 0.00 in0.0 mm
05:01 PM 44.8°F7.1°C 36.0°F2.2°C 71% 3.4 mph SE5.5 kmh SE 10.3 mph16.6 kmh 30.30 in1026.1 mb - 0.00 in0.0 mm 0.00 in0.0 mm
05:07 PM 44.4°F6.9°C 36.3°F2.4°C 73% 2.3 mph SE3.7 kmh SE 5.8 mph9.3 kmh 30.30 in1026.1 mb - 0.00 in0.0 mm 0.00 in0.0 mm
05:13 PM 44.4°F6.9°C 36.6°F2.6°C 74% 2.3 mph SE3.7 kmh SE 3.4 mph5.5 kmh 30.30 in1026.1 mb - 0.00 in0.0 mm 0.00 in0.0 mm
05:18 PM 44.3°F6.8°C 36.8°F2.7°C 75% 2.3 mph SE3.7 kmh SE 3.4 mph5.5 kmh 30.30 in1026.1 mb - 0.00 in0.0 mm 0.00 in0.0 mm
05:24 PM 44.2°F6.8°C 37.1°F2.8°C 76% 2.3 mph SE3.7 kmh SE 3.4 mph5.5 kmh 30.30 in1026.1 mb - 0.00 in0.0 mm 0.00 in0.0 mm
05:30 PM 44.1°F6.7°C 37.0°F2.8°C 76% 3.4 mph SE5.5 kmh SE 5.8 mph9.3 kmh 30.29 in1025.7 mb - 0.00 in0.0 mm 0.00 in0.0 mm
05:35 PM 44.0°F6.7°C 37.3°F2.9°C 77% 2.3 mph SE3.7 kmh SE 4.6 mph7.4 kmh 30.29 in1025.7 mb - 0.00 in0.0 mm 0.00 in0.0 mm
05:41 PM 43.7°F6.5°C 37.3°F2.9°C 78% 3.4 mph ESE5.5 kmh ESE 8.0 mph12.9 kmh 30.29 in1025.7 mb - 0.00 in0.0 mm 0.00 in0.0 mm
05:46 PM 43.7°F6.5°C 37.3°F2.9°C 78% 3.4 mph ESE5.5 kmh ESE 4.6 mph7.4 kmh 30.29 in1025.7 mb - 0.00 in0.0 mm 0.00 in0.0 mm
05:52 PM 43.5°F6.4°C 37.4°F3.0°C 79% 2.3 mph SE3.7 kmh SE 3.4 mph5.5 kmh 30.29 in1025.7 mb - 0.00 in0.0 mm 0.00 in0.0 mm
05:58 PM 43.4°F6.3°C 37.3°F2.9°C 79% 2.3 mph SE3.7 kmh SE 3.4 mph5.5 kmh 30.29 in1025.7 mb - 0.00 in0.0 mm 0.00 in0.0 mm
06:03 PM 43.2°F6.2°C 37.4°F3.0°C 80% 2.3 mph SE3.7 kmh SE 5.8 mph9.3 kmh 30.29 in1025.7 mb - 0.00 in0.0 mm 0.00 in0.0 mm
06:09 PM 43.0°F6.1°C 37.3°F2.9°C 80% 2.3 mph SE3.7 kmh SE 3.4 mph5.5 kmh 30.29 in1025.7 mb - 0.00 in0.0 mm 0.00 in0.0 mm
06:15 PM 42.7°F5.9°C 37.3°F2.9°C 81% 2.3 mph SE3.7 kmh SE 3.4 mph5.5 kmh 30.29 in1025.7 mb - 0.00 in0.0 mm 0.00 in0.0 mm
06:20 PM 42.6°F5.9°C 36.8°F2.7°C 80% 2.3 mph SE3.7 kmh SE 2.3 mph3.7 kmh 30.29 in1025.7 mb - 0.00 in0.0 mm 0.00 in0.0 mm
06:26 PM 41.8°F5.4°C 36.7°F2.6°C 82% 2.3 mph ESE3.7 kmh ESE 5.8 mph9.3 kmh 30.29 in1025.7 mb - 0.00 in0.0 mm 0.00 in0.0 mm
06:31 PM 41.8°F5.4°C 36.7°F2.6°C 82% 2.3 mph SE3.7 kmh SE 3.4 mph5.5 kmh 30.29 in1025.7 mb - 0.00 in0.0 mm 0.00 in0.0 mm
06:37 PM 41.7°F5.4°C 36.6°F2.6°C 82% 2.3 mph ESE3.7 kmh ESE 3.4 mph5.5 kmh 30.29 in1025.7 mb - 0.00 in0.0 mm 0.00 in0.0 mm
06:43 PM 41.5°F5.3°C 36.4°F2.4°C 82% 1.1 mph ESE1.8 kmh ESE 2.3 mph3.7 kmh 30.29 in1025.7 mb - 0.00 in0.0 mm 0.00 in0.0 mm
06:48 PM 41.0°F5.0°C 36.2°F2.3°C 83% 1.1 mph SE1.8 kmh SE 3.4 mph5.5 kmh 30.29 in1025.7 mb - 0.00 in0.0 mm 0.00 in0.0 mm
06:54 PM 40.7°F4.8°C 36.0°F2.2°C 83% Calm Calm 2.3 mph3.7 kmh 30.29 in1025.7 mb - 0.00 in0.0 mm 0.00 in0.0 mm
07:00 PM 39.9°F4.4°C 35.4°F1.9°C 84% Calm Calm 1.1 mph1.8 kmh 30.29 in1025.7 mb - 0.00 in0.0 mm 0.00 in0.0 mm
07:05 PM 39.5°F4.2°C 35.4°F1.9°C 85% Calm Calm 2.3 mph3.7 kmh 30.29 in1025.7 mb - 0.00 in0.0 mm 0.00 in0.0 mm
07:11 PM 38.9°F3.8°C 35.4°F1.9°C 87% 1.1 mph SE1.8 kmh SE 1.1 mph1.8 kmh 30.29 in1025.7 mb - 0.00 in0.0 mm 0.00 in0.0 mm
07:16 PM 39.0°F3.9°C 35.5°F1.9°C 87% Calm Calm 1.1 mph1.8 kmh 30.29 in1025.7 mb - 0.00 in0.0 mm 0.00 in0.0 mm
07:22 PM 38.8°F3.8°C 35.0°F1.7°C 86% 1.1 mph SE1.8 kmh SE 2.3 mph3.7 kmh 30.28 in1025.4 mb - 0.00 in0.0 mm 0.00 in0.0 mm
07:28 PM 38.5°F3.6°C 34.7°F1.5°C 86% 1.1 mph SE1.8 kmh SE 3.4 mph5.5 kmh 30.28 in1025.4 mb - 0.00 in0.0 mm 0.00 in0.0 mm
07:33 PM 38.3°F3.5°C 34.7°F1.5°C 87% 1.1 mph ESE1.8 kmh ESE 2.3 mph3.7 kmh 30.28 in1025.4 mb - 0.00 in0.0 mm 0.00 in0.0 mm
07:39 PM 38.3°F3.5°C 34.7°F1.5°C 87% 1.1 mph ESE1.8 kmh ESE 2.3 mph3.7 kmh 30.28 in1025.4 mb - 0.00 in0.0 mm 0.00 in0.0 mm
07:45 PM 37.4°F3.0°C 34.1°F1.2°C 88% 1.1 mph SE1.8 kmh SE 3.4 mph5.5 kmh 30.28 in1025.4 mb - 0.00 in0.0 mm 0.00 in0.0 mm
07:50 PM 37.5°F3.1°C 34.5°F1.4°C 89% 1.1 mph SE1.8 kmh SE 2.3 mph3.7 kmh 30.28 in1025.4 mb - 0.00 in0.0 mm 0.00 in0.0 mm
07:56 PM 37.1°F2.8°C 33.9°F1.1°C 88% Calm Calm 1.1 mph1.8 kmh 30.29 in1025.7 mb - 0.00 in0.0 mm 0.00 in0.0 mm
08:01 PM 37.1°F2.8°C 33.9°F1.1°C 88% Calm Calm 1.1 mph1.8 kmh 30.29 in1025.7 mb - 0.00 in0.0 mm 0.00 in0.0 mm
08:07 PM 36.8°F2.7°C 33.6°F0.9°C 88% Calm Calm -- 30.28 in1025.4 mb - 0.00 in0.0 mm 0.00 in0.0 mm
08:13 PM 36.7°F2.6°C 33.5°F0.8°C 88% Calm Calm 1.1 mph1.8 kmh 30.28 in1025.4 mb - 0.00 in0.0 mm 0.00 in0.0 mm
08:18 PM 36.5°F2.5°C 33.6°F0.9°C 89% Calm Calm -- 30.28 in1025.4 mb - 0.00 in0.0 mm 0.00 in0.0 mm
08:24 PM 36.3°F2.4°C 33.4°F0.8°C 89% Calm Calm -- 30.28 in1025.4 mb - 0.00 in0.0 mm 0.00 in0.0 mm
08:30 PM 36.2°F2.3°C 33.2°F0.7°C 89% Calm Calm -- 30.28 in1025.4 mb - 0.00 in0.0 mm 0.00 in0.0 mm
08:35 PM 35.7°F2.1°C 32.7°F0.4°C 89% Calm Calm -- 30.28 in1025.4 mb - 0.00 in0.0 mm 0.00 in0.0 mm
08:41 PM 34.6°F1.4°C 32.0°F0.0°C 90% 1.1 mph ESE1.8 kmh ESE 2.3 mph3.7 kmh 30.27 in1025.1 mb - 0.00 in0.0 mm 0.00 in0.0 mm
08:46 PM 34.5°F1.4°C 31.9°F-0.1°C 90% 1.1 mph ESE1.8 kmh ESE 2.3 mph3.7 kmh 30.27 in1025.1 mb - 0.00 in0.0 mm 0.00 in0.0 mm
08:52 PM 34.1°F1.2°C 31.7°F-0.2°C 91% 1.1 mph E1.8 kmh E 3.4 mph5.5 kmh 30.27 in1025.1 mb - 0.00 in0.0 mm 0.00 in0.0 mm
08:58 PM 34.8°F1.6°C 32.8°F0.4°C 92% 1.1 mph SE1.8 kmh SE 2.3 mph3.7 kmh 30.27 in1025.1 mb - 0.00 in0.0 mm 0.00 in0.0 mm
09:03 PM 35.9°F2.2°C 33.5°F0.8°C 91% 1.1 mph ESE1.8 kmh ESE 2.3 mph3.7 kmh 30.26 in1024.7 mb - 0.00 in0.0 mm 0.00 in0.0 mm
09:09 PM 35.5°F1.9°C 32.5°F0.3°C 89% 1.1 mph ESE1.8 kmh ESE 2.3 mph3.7 kmh 30.26 in1024.7 mb - 0.00 in0.0 mm 0.00 in0.0 mm
09:15 PM 35.1°F1.7°C 32.5°F0.3°C 90% 1.1 mph SE1.8 kmh SE 2.3 mph3.7 kmh 30.26 in1024.7 mb - 0.00 in0.0 mm 0.00 in0.0 mm
09:20 PM 35.3°F1.8°C 32.9°F0.5°C 91% 1.1 mph E1.8 kmh E 2.3 mph3.7 kmh 30.26 in1024.7 mb - 0.00 in0.0 mm 0.00 in0.0 mm
09:26 PM 35.3°F1.8°C 32.7°F0.4°C 90% Calm Calm 2.3 mph3.7 kmh 30.26 in1024.7 mb - 0.00 in0.0 mm 0.00 in0.0 mm
09:31 PM 35.5°F1.9°C 33.1°F0.6°C 91% Calm Calm 1.1 mph1.8 kmh 30.26 in1024.7 mb - 0.00 in0.0 mm 0.00 in0.0 mm
09:37 PM 36.3°F2.4°C 33.7°F0.9°C 90% Calm Calm -- 30.26 in1024.7 mb - 0.00 in0.0 mm 0.00 in0.0 mm
09:43 PM 36.2°F2.3°C 33.5°F0.8°C 90% Calm Calm 3.4 mph5.5 kmh 30.26 in1024.7 mb - 0.00 in0.0 mm 0.00 in0.0 mm
09:48 PM 35.4°F1.9°C 32.8°F0.4°C 90% 1.1 mph SE1.8 kmh SE 2.3 mph3.7 kmh 30.26 in1024.7 mb - 0.00 in0.0 mm 0.00 in0.0 mm
09:54 PM 35.4°F1.9°C 32.8°F0.4°C 90% 1.1 mph SE1.8 kmh SE 2.3 mph3.7 kmh 30.26 in1024.7 mb - 0.00 in0.0 mm 0.00 in0.0 mm
10:00 PM 36.0°F2.2°C 33.6°F0.9°C 91% 1.1 mph ESE1.8 kmh ESE 2.3 mph3.7 kmh 30.25 in1024.4 mb - 0.00 in0.0 mm 0.00 in0.0 mm
10:05 PM 36.0°F2.2°C 33.6°F0.9°C 91% Calm Calm 2.3 mph3.7 kmh 30.25 in1024.4 mb - 0.00 in0.0 mm 0.00 in0.0 mm
10:11 PM 35.0°F1.7°C 32.3°F0.2°C 90% Calm Calm 2.3 mph3.7 kmh 30.25 in1024.4 mb - 0.00 in0.0 mm 0.00 in0.0 mm
10:16 PM 34.6°F1.4°C 32.0°F0.0°C 90% 1.1 mph SE1.8 kmh SE 2.3 mph3.7 kmh 30.25 in1024.4 mb - 0.00 in0.0 mm 0.00 in0.0 mm
10:22 PM 35.4°F1.9°C 33.3°F0.7°C 92% 1.1 mph ESE1.8 kmh ESE 2.3 mph3.7 kmh 30.25 in1024.4 mb - 0.00 in0.0 mm 0.00 in0.0 mm
10:28 PM 35.4°F1.9°C 33.3°F0.7°C 92% 1.1 mph SE1.8 kmh SE 2.3 mph3.7 kmh 30.24 in1024.0 mb - 0.00 in0.0 mm 0.00 in0.0 mm
10:33 PM 36.8°F2.7°C 34.9°F1.6°C 93% 1.1 mph SE1.8 kmh SE 3.4 mph5.5 kmh 30.25 in1024.4 mb - 0.00 in0.0 mm 0.00 in0.0 mm
10:39 PM 36.7°F2.6°C 34.9°F1.6°C 93% 1.1 mph ESE1.8 kmh ESE 3.4 mph5.5 kmh 30.24 in1024.0 mb - 0.00 in0.0 mm 0.00 in0.0 mm
10:45 PM 36.2°F2.3°C 34.4°F1.3°C 93% Calm Calm 2.3 mph3.7 kmh 30.25 in1024.4 mb - 0.00 in0.0 mm 0.00 in0.0 mm
10:50 PM 36.3°F2.4°C 34.5°F1.4°C 93% 1.1 mph E1.8 kmh E 1.1 mph1.8 kmh 30.24 in1024.0 mb - 0.00 in0.0 mm 0.00 in0.0 mm
10:56 PM 35.3°F1.8°C 33.2°F0.7°C 92% 1.1 mph ESE1.8 kmh ESE 3.4 mph5.5 kmh 30.24 in1024.0 mb - 0.00 in0.0 mm 0.00 in0.0 mm
11:01 PM 34.8°F1.6°C 32.7°F0.4°C 92% 2.3 mph SE3.7 kmh SE 3.4 mph5.5 kmh 30.24 in1024.0 mb - 0.00 in0.0 mm 0.00 in0.0 mm
11:07 PM 36.1°F2.3°C 34.6°F1.4°C 94% 1.1 mph ESE1.8 kmh ESE 3.4 mph5.5 kmh 30.24 in1024.0 mb - 0.00 in0.0 mm 0.00 in0.0 mm
11:13 PM 37.1°F2.8°C 35.5°F1.9°C 94% 1.1 mph SE1.8 kmh SE 4.6 mph7.4 kmh 30.23 in1023.7 mb - 0.00 in0.0 mm 0.00 in0.0 mm
11:18 PM 38.0°F3.3°C 36.4°F2.4°C 94% 2.3 mph ESE3.7 kmh ESE 6.9 mph11.1 kmh 30.23 in1023.7 mb - 0.00 in0.0 mm 0.00 in0.0 mm
11:24 PM 38.2°F3.4°C 36.6°F2.6°C 94% 1.1 mph SE1.8 kmh SE 3.4 mph5.5 kmh 30.23 in1023.7 mb - 0.00 in0.0 mm 0.00 in0.0 mm
11:30 PM 37.7°F3.2°C 35.9°F2.2°C 93% 2.3 mph ESE3.7 kmh ESE 3.4 mph5.5 kmh 30.23 in1023.7 mb - 0.00 in0.0 mm 0.00 in0.0 mm
11:35 PM 38.0°F3.3°C 36.2°F2.3°C 93% 2.3 mph E3.7 kmh E 3.4 mph5.5 kmh 30.22 in1023.4 mb - 0.00 in0.0 mm 0.00 in0.0 mm
11:41 PM 38.6°F3.7°C 36.8°F2.7°C 93% 2.3 mph SE3.7 kmh SE 5.8 mph9.3 kmh 30.22 in1023.4 mb - 0.00 in0.0 mm 0.00 in0.0 mm
11:46 PM 39.2°F4.0°C 37.6°F3.1°C 94% 2.3 mph ESE3.7 kmh ESE 3.4 mph5.5 kmh 30.22 in1023.4 mb - 0.00 in0.0 mm 0.00 in0.0 mm
11:52 PM 39.9°F4.4°C 38.1°F3.4°C 93% 3.4 mph ESE5.5 kmh ESE 9.2 mph14.8 kmh 30.22 in1023.4 mb - 0.00 in0.0 mm 0.00 in0.0 mm
11:58 PM 40.1°F4.5°C 38.3°F3.5°C 93% 3.4 mph SE5.5 kmh SE 4.6 mph7.4 kmh 30.22 in1023.4 mb - 0.00 in0.0 mm 0.00 in0.0 mm